Time;durP1;ratioP1;P1;durP2;ratioP2;P2;SDS_P1;SDS_P2;PMS_P1;PMS_P2;Temp;Humidity;BMP_temperature;BMP_pressure;BME280_temperature;BME280_humidity;BME280_pressure;Samples;Min_cycle;Max_cycle;Signal;HPM_P1;HPM_P2
2023/04/12 00:01:34;;;;;;;12.18;7.13;;;;;;;3.23;100.00;100943.88;10263660;28;20502;-70
2023/04/12 00:06:33;;;;;;;10.48;6.50;;;;;;;3.12;100.00;100949.22;10263946;28;20049;-68
2023/04/12 00:11:30;;;;;;;14.35;6.10;;;;;;;3.17;100.00;100940.31;10258701;28;20605;-71
2023/04/12 00:16:27;;;;;;;10.68;6.85;;;;;;;3.08;100.00;100931.91;10251039;28;20051;-71
2023/04/12 00:21:27;;;;;;;13.35;6.32;;;;;;;3.06;100.00;100923.25;10264090;28;20056;-71
2023/04/12 00:26:26;;;;;;;8.55;6.47;;;;;;;3.03;100.00;100921.06;10255327;28;20052;-71
2023/04/12 00:31:22;;;;;;;11.45;6.20;;;;;;;2.94;100.00;100909.94;10264692;28;20045;-73
2023/04/12 00:36:19;;;;;;;10.50;6.03;;;;;;;2.90;100.00;100899.94;10259370;28;20045;-74
2023/04/12 00:41:16;;;;;;;9.75;6.07;;;;;;;2.86;100.00;100898.84;10253430;28;20077;-73
2023/04/12 00:46:13;;;;;;;11.13;6.00;;;;;;;2.81;100.00;100898.78;10268234;28;20128;-72
2023/04/12 00:51:09;;;;;;;10.57;6.40;;;;;;;2.78;100.00;100900.13;10265769;28;20055;-72
2023/04/12 00:56:07;;;;;;;11.10;6.57;;;;;;;2.72;100.00;100885.81;10264733;28;20053;-73
2023/04/12 01:01:03;;;;;;;8.18;6.22;;;;;;;2.70;100.00;100881.75;10264334;28;20049;-71
2023/04/12 01:06:03;;;;;;;9.90;6.80;;;;;;;2.65;100.00;100863.63;10254482;28;20049;-72
2023/04/12 01:11:25;;;;;;;7.57;6.57;;;;;;;2.64;100.00;100856.59;10255589;28;20123;-71
2023/04/12 01:16:33;;;;;;;11.35;6.32;;;;;;;2.65;100.00;100855.53;10263055;28;20526;-73
2023/04/12 01:21:44;;;;;;;8.45;6.32;;;;;;;2.66;100.00;100840.13;10269330;28;20598;-73
2023/04/12 01:26:43;;;;;;;10.52;6.57;;;;;;;2.40;100.00;100831.09;10261926;28;20056;-74
2023/04/12 01:31:43;;;;;;;7.18;5.80;;;;;;;2.54;100.00;100829.53;10263932;28;20530;-73
2023/04/12 01:36:41;;;;;;;10.57;7.00;;;;;;;2.49;100.00;100824.13;10255461;28;20522;-73
2023/04/12 01:41:40;;;;;;;9.02;6.43;;;;;;;2.62;100.00;100817.44;10253733;28;20387;-73
2023/04/12 01:46:37;;;;;;;10.38;5.63;;;;;;;2.55;100.00;100812.25;10258669;28;20048;-73
2023/04/12 01:51:48;;;;;;;12.18;6.38;;;;;;;2.66;100.00;100813.94;10262813;28;20145;-73
2023/04/12 01:56:47;;;;;;;9.85;6.43;;;;;;;2.55;100.00;100796.06;10270911;28;20327;-72
2023/04/12 02:01:45;;;;;;;9.90;5.85;;;;;;;2.66;100.00;100795.03;10251187;28;20077;-71
2023/04/12 02:06:43;;;;;;;7.88;5.10;;;;;;;2.66;100.00;100784.25;10264584;28;20045;-72
2023/04/12 02:11:40;;;;;;;7.38;4.85;;;;;;;2.70;100.00;100769.16;10259135;28;20140;-71
2023/04/12 02:16:36;;;;;;;13.02;6.65;;;;;;;2.78;100.00;100762.41;10260064;28;20083;-73
2023/04/12 02:21:43;;;;;;;11.57;5.68;;;;;;;2.90;100.00;100756.78;10259567;28;20056;-74
2023/04/12 02:26:40;;;;;;;5.60;4.65;;;;;;;2.95;100.00;100749.53;10271266;28;20045;-73
2023/04/12 02:31:37;;;;;;;8.07;4.97;;;;;;;2.96;100.00;100744.94;10253969;28;20136;-71
2023/04/12 02:36:36;;;;;;;8.38;5.00;;;;;;;2.93;100.00;100738.19;10254950;28;20041;-71
2023/04/12 02:41:33;;;;;;;5.53;4.80;;;;;;;2.90;100.00;100725.22;10274704;28;20171;-71
2023/04/12 02:46:30;;;;;;;10.57;5.55;;;;;;;2.83;100.00;100707.63;10267436;28;20534;-73
2023/04/12 02:51:27;;;;;;;9.82;5.32;;;;;;;2.77;100.00;100703.31;10267870;28;20048;-73
2023/04/12 02:56:23;;;;;;;9.15;5.13;;;;;;;2.79;100.00;100684.94;10253820;28;20080;-73
2023/04/12 03:01:20;;;;;;;7.95;5.15;;;;;;;2.73;100.00;100665.22;10261449;28;20059;-73
2023/04/12 03:06:16;;;;;;;8.25;5.00;;;;;;;2.78;100.00;100650.91;10258773;28;20522;-74
2023/04/12 03:11:13;;;;;;;12.30;5.68;;;;;;;2.70;100.00;100638.75;10259715;28;20055;-72
2023/04/12 03:16:28;;;;;;;10.00;5.78;;;;;;;2.77;100.00;100627.69;10267582;28;20060;-72
2023/04/12 03:21:25;;;;;;;10.95;5.50;;;;;;;2.85;100.00;100635.25;10261786;28;20110;-73
2023/04/12 03:26:21;;;;;;;11.40;5.47;;;;;;;2.94;100.00;100617.44;10267706;28;20140;-72
2023/04/12 03:31:20;;;;;;;8.13;5.70;;;;;;;2.98;100.00;100596.91;10267540;28;20052;-73
2023/04/12 03:36:16;;;;;;;6.72;4.75;;;;;;;3.13;100.00;100582.59;10263937;28;20057;-70
2023/04/12 03:41:14;;;;;;;9.65;5.78;;;;;;;3.05;100.00;100581.25;10265412;28;20652;-70
2023/04/12 03:46:14;;;;;;;9.13;5.72;;;;;;;3.22;100.00;100567.44;10265893;28;20049;-68
2023/04/12 03:51:11;;;;;;;10.15;5.15;;;;;;;3.06;100.00;100572.06;10264210;28;20104;-68
2023/04/12 03:56:07;;;;;;;9.63;4.57;;;;;;;3.17;100.00;100562.88;10252374;28;20050;-64
2023/04/12 04:01:08;;;;;;;10.35;4.95;;;;;;;3.17;100.00;100552.06;10235490;28;20048;-69
2023/04/12 04:06:04;;;;;;;10.52;6.50;;;;;;;3.24;100.00;100537.47;10242919;28;20046;-68
2023/04/12 04:11:01;;;;;;;7.80;5.35;;;;;;;3.29;100.00;100521.25;10242305;28;20057;-69
2023/04/12 04:16:05;;;;;;;6.93;4.80;;;;;;;3.35;100.00;100509.34;10246242;28;20132;-70
2023/04/12 04:21:03;;;;;;;11.02;5.10;;;;;;;3.31;100.00;100494.75;10259525;28;20049;-70
2023/04/12 04:26:04;;;;;;;6.25;5.22;;;;;;;3.30;100.00;100490.44;10245240;28;20119;-70
2023/04/12 04:31:05;;;;;;;10.25;5.05;;;;;;;3.32;100.00;100488.28;10259192;28;20529;-69
2023/04/12 04:36:05;;;;;;;8.60;5.05;;;;;;;3.33;100.00;100473.69;10262192;28;20048;-70
2023/04/12 04:41:02;;;;;;;9.30;5.50;;;;;;;3.36;100.00;100467.72;10258869;28;20103;-70
2023/04/12 04:45:59;;;;;;;7.80;4.93;;;;;;;3.34;100.00;100453.66;10241264;28;20052;-70
2023/04/12 04:50:56;;;;;;;9.65;5.00;;;;;;;3.38;100.00;100443.91;10260633;28;20050;-70
2023/04/12 04:55:59;;;;;;;7.00;4.90;;;;;;;3.41;100.00;100432.53;10251330;28;20049;-69
2023/04/12 05:00:56;;;;;;;8.07;4.38;;;;;;;3.37;100.00;100431.50;10246451;28;20051;-70
2023/04/12 05:05:55;;;;;;;5.50;4.68;;;;;;;3.40;100.00;100425.53;10255912;28;20439;-69
2023/04/12 05:10:54;;;;;;;5.97;4.82;;;;;;;3.49;100.00;100418.47;10253475;28;20711;-69
2023/04/12 05:15:50;;;;;;;10.95;4.80;;;;;;;3.48;100.00;100416.88;10244855;28;20422;-69
2023/04/12 05:20:47;;;;;;;6.43;4.53;;;;;;;3.57;100.00;100431.41;10262667;28;20045;-69
2023/04/12 05:25:48;;;;;;;7.07;4.82;;;;;;;3.57;100.00;100415.19;10253630;28;20076;-69
2023/04/12 05:30:45;;;;;;;5.67;4.53;;;;;;;3.64;100.00;100408.66;10255922;28;20418;-69
2023/04/12 05:35:42;;;;;;;6.80;4.75;;;;;;;3.68;100.00;100404.31;10260801;28;20049;-69
2023/04/12 05:40:38;;;;;;;6.40;4.43;;;;;;;3.67;100.00;100402.72;10241838;28;20049;-69
2023/04/12 05:45:35;;;;;;;9.50;4.90;;;;;;;3.75;100.00;100396.69;10259186;28;20067;-69
2023/04/12 05:50:31;;;;;;;7.70;4.38;;;;;;;3.84;100.00;100380.69;10256274;28;20076;-69
2023/04/12 05:55:28;;;;;;;10.30;4.20;;;;;;;3.90;100.00;100391.19;10246797;28;20060;-69
2023/04/12 06:00:25;;;;;;;4.53;4.00;;;;;;;3.89;100.00;100384.16;10259477;28;20140;-69
2023/04/12 06:05:22;;;;;;;8.75;4.22;;;;;;;4.04;100.00;100368.91;10260310;28;20064;-69
2023/04/12 06:10:18;;;;;;;7.80;4.45;;;;;;;4.16;100.00;100355.84;10258673;28;20136;-69
2023/04/12 06:15:15;;;;;;;5.80;4.70;;;;;;;4.22;100.00;100347.41;10266640;28;20128;-69
2023/04/12 06:20:11;;;;;;;4.65;4.10;;;;;;;4.38;100.00;100348.03;10257685;28;20139;-69
2023/04/12 06:25:08;;;;;;;10.45;4.32;;;;;;;4.41;100.00;100342.06;10255205;28;20510;-69
2023/04/12 06:30:05;;;;;;;6.15;4.15;;;;;;;4.62;100.00;100322.91;10274630;28;20698;-69
2023/04/12 06:35:01;;;;;;;9.30;4.25;;;;;;;4.70;100.00;100324.97;10263306;28;20077;-68
2023/04/12 06:39:58;;;;;;;11.52;5.35;;;;;;;4.92;100.00;100329.06;10257431;28;20085;-68
2023/04/12 06:44:55;;;;;;;9.68;5.03;;;;;;;4.98;100.00;100308.94;10273444;28;20514;-68
2023/04/12 06:49:54;;;;;;;10.80;4.47;;;;;;;5.12;100.00;100307.13;10244006;28;20628;-68
2023/04/12 06:54:52;;;;;;;7.40;4.25;;;;;;;5.20;100.00;100303.78;10269298;28;20049;-68
2023/04/12 06:59:48;;;;;;;7.65;4.35;;;;;;;5.36;100.00;100298.13;10264861;28;20049;-68
2023/04/12 07:04:46;;;;;;;7.00;4.60;;;;;;;5.49;100.00;100291.97;10255751;28;20148;-68
2023/04/12 07:09:42;;;;;;;9.93;5.00;;;;;;;5.80;100.00;100283.34;10262471;28;20045;-68
2023/04/12 07:14:39;;;;;;;8.05;4.35;;;;;;;6.11;100.00;100265.50;10268023;28;20048;-68
2023/04/12 07:19:35;;;;;;;10.43;5.10;;;;;;;6.47;100.00;100259.38;10256184;28;20638;-68
2023/04/12 07:24:32;;;;;;;7.85;4.78;;;;;;;6.63;100.00;100246.31;10278715;28;20048;-68
2023/04/12 07:29:28;;;;;;;6.70;5.03;;;;;;;6.75;100.00;100259.38;10258090;28;20055;-70
2023/04/12 07:34:25;;;;;;;6.70;5.07;;;;;;;6.89;100.00;100243.88;10260935;28;20052;-68
2023/04/12 07:39:21;;;;;;;5.95;4.60;;;;;;;-146.18;100.00;67994.34;10272026;28;20515;-68
2023/04/12 07:44:18;;;;;;;9.45;4.85;;;;;;;7.36;100.00;100230.06;10261653;28;20092;-69
2023/04/12 07:49:14;;;;;;;6.95;4.55;;;;;;;7.57;100.00;100230.38;10259929;28;20084;-69
2023/04/12 07:54:12;;;;;;;6.93;4.97;;;;;;;7.57;100.00;100219.50;10261266;28;20215;-69
2023/04/12 07:59:08;;;;;;;8.77;4.88;;;;;;;7.52;100.00;100216.88;10248944;28;20068;-69
2023/04/12 08:04:05;;;;;;;5.35;4.20;;;;;;;7.55;100.00;100210.84;10266835;28;20395;-69
2023/04/12 08:09:02;;;;;;;11.07;6.05;;;;;;;7.68;100.00;100209.16;10257755;28;20136;-70
2023/04/12 08:13:59;;;;;;;8.52;5.28;;;;;;;7.84;100.00;100185.06;10251276;28;20051;-69
2023/04/12 08:18:56;;;;;;;8.27;5.10;;;;;;;7.96;100.00;100177.13;10266331;28;20128;-69
2023/04/12 08:23:52;;;;;;;9.23;4.82;;;;;;;7.95;100.00;100164.63;10259783;28;20140;-70
2023/04/12 08:28:49;;;;;;;7.60;4.93;;;;;;;7.91;100.00;100158.22;10267110;28;20049;-69
2023/04/12 08:33:45;;;;;;;8.52;5.13;;;;;;;7.86;100.00;100153.72;10262359;28;20063;-69
2023/04/12 08:38:41;;;;;;;6.40;5.75;;;;;;;7.88;100.00;100142.50;10270115;28;20426;-69
2023/04/12 08:43:45;;;;;;;7.53;4.80;;;;;;;7.83;100.00;100129.06;10262889;28;20045;-69
2023/04/12 08:48:45;;;;;;;10.73;5.90;;;;;;;7.78;100.00;100114.47;10263950;28;20115;-69
2023/04/12 08:53:42;;;;;;;8.50;5.30;;;;;;;7.86;100.00;100101.19;10245149;28;20052;-69
2023/04/12 08:58:40;;;;;;;11.88;5.57;;;;;;;7.96;100.00;100090.00;10267835;28;20045;-69
2023/04/12 09:03:36;;;;;;;8.52;4.88;;;;;;;8.07;100.00;100079.66;10253315;28;20052;-70
2023/04/12 09:08:34;;;;;;;7.65;4.90;;;;;;;8.17;100.00;100073.91;10261024;28;20090;-69
2023/04/12 09:13:33;;;;;;;6.78;5.60;;;;;;;8.31;100.00;100062.88;10269013;28;20045;-69
2023/04/12 09:18:29;;;;;;;5.70;5.03;;;;;;;8.63;100.00;100054.28;10258050;28;20491;-69
2023/04/12 09:23:26;;;;;;;11.10;4.90;;;;;;;8.83;100.00;100035.66;10254936;28;20087;-67
2023/04/12 09:28:25;;;;;;;9.85;5.00;;;;;;;9.02;100.00;100036.09;10256049;28;20045;-70
2023/04/12 09:33:31;;;;;;;10.63;5.07;;;;;;;9.08;100.00;100014.13;10247228;28;20342;-69
2023/04/12 09:38:32;;;;;;;7.88;5.10;;;;;;;9.11;100.00;100005.31;10258834;28;20080;-70
2023/04/12 09:43:38;;;;;;;8.23;5.20;;;;;;;9.19;100.00;99982.63;10257165;28;20115;-69
2023/04/12 09:48:34;;;;;;;8.35;4.95;;;;;;;9.38;100.00;99974.09;10255144;28;20053;-70
2023/04/12 09:53:34;;;;;;;8.77;4.90;;;;;;;9.37;100.00;99973.25;10274479;28;20049;-70
2023/04/12 09:58:32;;;;;;;8.48;4.78;;;;;;;9.28;100.00;99961.59;10256380;28;20124;-69
2023/04/12 10:03:29;;;;;;;9.95;6.07;;;;;;;9.20;100.00;99951.53;10268154;28;20108;-69
2023/04/12 10:08:26;;;;;;;6.80;4.70;;;;;;;9.19;100.00;99950.72;10241520;28;20129;-69
2023/04/12 10:13:24;;;;;;;10.60;5.28;;;;;;;9.31;100.00;99947.31;10258084;28;20045;-70
2023/04/12 10:18:22;;;;;;;6.80;4.80;;;;;;;9.35;100.00;99931.91;10260576;28;20057;-69
2023/04/12 10:23:18;;;;;;;7.65;4.85;;;;;;;9.40;100.00;99930.88;10249656;28;20103;-70
2023/04/12 10:28:17;;;;;;;5.80;5.20;;;;;;;9.41;100.00;99930.56;10264461;28;20079;-69
2023/04/12 10:33:16;;;;;;;7.13;5.57;;;;;;;9.50;100.00;99921.53;10260015;28;20463;-69
2023/04/12 10:38:14;;;;;;;7.72;5.47;;;;;;;9.61;100.00;99917.31;10263314;28;20574;-70
2023/04/12 10:43:25;;;;;;;9.80;5.85;;;;;;;9.64;100.00;99905.72;10260867;28;20040;-70
2023/04/12 10:48:30;;;;;;;8.80;4.72;;;;;;;9.60;100.00;99904.78;10269238;28;20067;-69
2023/04/12 10:53:27;;;;;;;7.13;5.72;;;;;;;9.56;100.00;99915.56;10265860;28;20052;-70
2023/04/12 10:58:48;;;;;;;6.85;5.05;;;;;;;9.33;100.00;99917.78;10263329;28;20059;-69
2023/04/12 11:04:17;;;;;;;6.82;4.72;;;;;;;9.11;100.00;99915.31;10264004;28;20053;-69
2023/04/12 11:09:27;;;;;;;11.20;6.07;;;;;;;8.80;100.00;99927.28;10260995;28;20053;-69
2023/04/12 11:14:29;;;;;;;9.85;5.50;;;;;;;8.51;100.00;99931.50;10263128;28;20049;-69
2023/04/12 11:19:26;;;;;;;9.10;5.50;;;;;;;8.25;100.00;99938.88;10255506;28;20056;-69
2023/04/12 11:24:23;;;;;;;5.68;4.93;;;;;;;7.89;100.00;99943.50;10260949;28;20418;-69
2023/04/12 11:29:23;;;;;;;8.98;4.97;;;;;;;7.62;100.00;99944.56;10266192;28;20133;-70
2023/04/12 11:34:20;;;;;;;13.50;5.70;;;;;;;7.48;100.00;99949.34;10261494;28;20099;-69
2023/04/12 11:39:17;;;;;;;9.25;5.53;;;;;;;7.41;100.00;99949.00;10270838;28;20400;-69
2023/04/12 11:44:17;;;;;;;10.10;5.85;;;;;;;7.49;100.00;99946.28;10264213;28;20049;-69
2023/04/12 11:49:18;;;;;;;10.30;6.25;;;;;;;7.46;100.00;99943.41;10260275;28;20872;-70
2023/04/12 11:54:15;;;;;;;10.75;6.13;;;;;;;7.46;100.00;99937.97;10258562;28;20434;-69
2023/04/12 11:59:11;;;;;;;12.18;7.05;;;;;;;7.54;100.00;99942.63;10264041;28;20111;-69
2023/04/12 12:04:08;;;;;;;13.90;8.00;;;;;;;7.59;100.00;99935.13;10254480;28;20064;-70
2023/04/12 12:09:05;;;;;;;10.00;6.30;;;;;;;7.59;100.00;99934.34;10258579;28;20049;-69
2023/04/12 12:14:01;;;;;;;11.63;7.28;;;;;;;7.62;100.00;99933.69;10265315;28;20051;-69
2023/04/12 12:19:02;;;;;;;10.10;6.40;;;;;;;7.53;100.00;99924.72;10261968;28;20069;-69
2023/04/12 12:23:58;;;;;;;11.82;6.75;;;;;;;7.58;100.00;99922.63;10259452;28;20091;-69
2023/04/12 12:28:58;;;;;;;8.73;6.13;;;;;;;7.52;100.00;99920.38;10259616;28;20049;-69
2023/04/12 12:33:57;;;;;;;10.63;7.22;;;;;;;7.52;100.00;99925.81;10269898;28;20056;-69
2023/04/12 12:38:53;;;;;;;16.45;7.22;;;;;;;7.74;100.00;99914.81;10265823;28;20763;-69
2023/04/12 12:43:51;;;;;;;12.30;6.80;;;;;;;7.88;100.00;99903.00;10262366;28;20507;-69
2023/04/12 12:48:48;;;;;;;9.32;6.38;;;;;;;7.78;100.00;99899.47;10267884;28;20065;-69
2023/04/12 12:53:45;;;;;;;10.38;6.55;;;;;;;7.68;100.00;99888.06;10266712;28;20558;-69
2023/04/12 12:58:41;;;;;;;9.65;6.28;;;;;;;7.64;100.00;99884.41;10263583;28;20049;-69
2023/04/12 13:03:38;;;;;;;10.25;7.53;;;;;;;7.70;100.00;99869.53;10253409;28;20041;-69
2023/04/12 13:08:35;;;;;;;8.25;6.80;;;;;;;7.94;100.00;99852.72;10239467;28;20061;-69
2023/04/12 13:13:32;;;;;;;14.40;7.18;;;;;;;8.05;100.00;99848.53;10265077;28;20045;-69
2023/04/12 13:18:29;;;;;;;10.32;6.65;;;;;;;8.18;100.00;99836.66;10263387;28;20164;-69
2023/04/12 13:23:25;;;;;;;8.75;6.57;;;;;;;8.40;100.00;99826.72;10252595;28;20467;-69
2023/04/12 13:28:21;;;;;;;9.25;7.03;;;;;;;8.39;100.00;99825.09;10254846;28;20095;-69
2023/04/12 13:33:18;;;;;;;8.00;5.97;;;;;;;8.27;100.00;99816.81;10252912;28;20057;-69
2023/04/12 13:38:17;;;;;;;7.35;6.45;;;;;;;8.12;100.00;99809.94;10252578;28;20041;-69
2023/04/12 13:43:14;;;;;;;8.57;5.82;;;;;;;8.04;100.00;99811.56;10256078;28;20507;-69
2023/04/12 13:48:10;;;;;;;7.95;6.45;;;;;;;7.90;100.00;99802.78;10254535;28;20068;-69
2023/04/12 13:53:07;;;;;;;6.65;5.88;;;;;;;7.97;100.00;99789.47;10256093;28;20069;-69
2023/04/12 13:58:03;;;;;;;6.50;5.47;;;;;;;7.92;100.00;99797.81;10254461;28;20132;-69
2023/04/12 14:02:59;;;;;;;7.95;5.00;;;;;;;7.87;100.00;99797.97;10254539;28;20088;-69
2023/04/12 14:07:56;;;;;;;8.88;5.55;;;;;;;7.90;100.00;99786.44;10252425;28;20702;-69
2023/04/12 14:12:52;;;;;;;10.60;5.78;;;;;;;7.89;100.00;99790.28;10259575;28;20048;-69
2023/04/12 14:17:49;;;;;;;7.82;6.47;;;;;;;7.84;100.00;99777.63;10252014;28;20132;-69
2023/04/12 14:22:45;;;;;;;9.63;5.90;;;;;;;7.87;100.00;99784.38;10256366;28;20052;-69
2023/04/12 14:27:43;;;;;;;7.82;5.82;;;;;;;7.77;100.00;99778.16;10264313;28;20090;-69
2023/04/12 14:32:40;;;;;;;10.23;7.00;;;;;;;7.85;100.00;99767.56;10270321;28;20503;-69
2023/04/12 14:37:36;;;;;;;8.65;6.00;;;;;;;7.84;100.00;99782.28;10273884;28;20045;-69
2023/04/12 14:42:33;;;;;;;9.48;6.88;;;;;;;7.93;100.00;99770.25;10256354;28;20490;-69
2023/04/12 14:47:30;;;;;;;8.90;6.80;;;;;;;7.93;100.00;99769.47;10248285;28;20053;-69
2023/04/12 14:52:26;;;;;;;9.93;6.20;;;;;;;7.93;100.00;99761.28;10272585;28;20037;-69
2023/04/12 14:57:23;;;;;;;10.52;7.57;;;;;;;7.94;100.00;99758.25;10265853;28;20049;-69
2023/04/12 15:02:19;;;;;;;8.00;7.20;;;;;;;8.04;100.00;99754.38;10252799;28;20071;-69
2023/04/12 15:07:20;;;;;;;11.88;7.78;;;;;;;8.04;100.00;99751.66;10267086;28;20047;-69
2023/04/12 15:12:17;;;;;;;11.05;6.55;;;;;;;8.01;100.00;99749.59;10246275;28;20111;-68
2023/04/12 15:17:13;;;;;;;6.93;6.03;;;;;;;7.94;100.00;99743.84;10266685;28;20128;-69
2023/04/12 15:22:09;;;;;;;7.75;6.60;;;;;;;8.02;100.00;99751.19;10256567;28;20037;-69
2023/04/12 15:27:06;;;;;;;8.05;6.40;;;;;;;7.94;100.00;99749.28;10253441;28;20053;-68
2023/04/12 15:32:03;;;;;;;7.78;6.55;;;;;;;7.86;100.00;99741.94;10263427;28;20475;-69
2023/04/12 15:37:00;;;;;;;8.77;6.03;;;;;;;7.87;100.00;99738.91;10255981;28;20053;-68
2023/04/12 15:41:56;;;;;;;6.93;5.82;;;;;;;7.92;100.00;99729.75;10265587;28;20045;-68
2023/04/12 15:46:54;;;;;;;6.03;5.53;;;;;;;7.91;100.00;99722.72;10260596;28;20050;-68
2023/04/12 15:52:06;;;;;;;9.55;6.50;;;;;;;7.85;100.00;99729.47;10263886;28;20049;-68
2023/04/12 15:57:08;;;;;;;6.90;6.30;;;;;;;7.98;100.00;99723.00;10265047;28;20053;-68
2023/04/12 16:02:07;;;;;;;8.90;6.03;;;;;;;8.01;100.00;99722.38;10258642;28;20057;-68
2023/04/12 16:07:04;;;;;;;9.15;7.18;;;;;;;8.03;100.00;99714.69;10244906;28;20064;-68
2023/04/12 16:12:01;;;;;;;7.40;6.32;;;;;;;8.09;100.00;99713.38;10248724;28;20138;-68
2023/04/12 16:16:58;;;;;;;7.75;6.53;;;;;;;8.04;100.00;99701.88;10258687;28;20048;-68
2023/04/12 16:21:55;;;;;;;8.30;6.20;;;;;;;8.05;100.00;99709.69;10246774;28;20553;-68
2023/04/12 16:26:52;;;;;;;7.25;6.55;;;;;;;8.03;100.00;99698.34;10261475;28;20101;-68
2023/04/12 16:31:48;;;;;;;7.70;6.15;;;;;;;8.10;100.00;99704.09;10256337;28;20151;-68
2023/04/12 16:36:45;;;;;;;7.57;6.80;;;;;;;8.10;100.00;99709.53;10259352;28;20049;-68
2023/04/12 16:41:42;;;;;;;7.50;6.40;;;;;;;7.99;100.00;99697.41;10251695;28;20673;-68
2023/04/12 16:46:39;;;;;;;6.82;6.15;;;;;;;8.01;100.00;99700.59;10258767;28;20517;-68
2023/04/12 16:51:35;;;;;;;9.02;6.90;;;;;;;8.07;100.00;99682.16;10258928;28;20301;-69
2023/04/12 16:56:33;;;;;;;9.05;6.63;;;;;;;8.13;100.00;99672.69;10258065;28;20060;-67
2023/04/12 17:01:29;;;;;;;9.95;6.68;;;;;;;8.13;100.00;99670.75;10255310;28;20043;-68
2023/04/12 17:06:29;;;;;;;7.70;6.60;;;;;;;8.16;100.00;99675.53;10246667;28;20087;-68
2023/04/12 17:11:26;;;;;;;9.55;6.95;;;;;;;8.12;100.00;99673.78;10233529;28;20042;-67
2023/04/12 17:16:23;;;;;;;11.23;7.55;;;;;;;8.06;100.00;99675.91;10248872;28;20052;-68
2023/04/12 17:21:21;;;;;;;7.85;7.15;;;;;;;8.02;100.00;99664.06;10253350;28;20495;-67
2023/04/12 17:26:19;;;;;;;10.52;7.70;;;;;;;8.07;100.00;99661.16;10253189;28;20128;-67
2023/04/12 17:31:16;;;;;;;9.90;7.57;;;;;;;8.06;100.00;99658.78;10258713;28;20500;-69
2023/04/12 17:36:12;;;;;;;8.98;8.00;;;;;;;8.04;100.00;99650.94;10253927;28;20048;-67
2023/04/12 17:41:09;;;;;;;10.77;7.68;;;;;;;8.03;100.00;99643.91;10244119;28;20049;-67
2023/04/12 17:46:06;;;;;;;8.43;7.35;;;;;;;8.07;100.00;99644.84;10259984;28;20147;-67
2023/04/12 17:51:04;;;;;;;9.52;7.80;;;;;;;8.04;100.00;99653.66;10242911;28;20045;-67
2023/04/12 17:56:01;;;;;;;9.70;7.00;;;;;;;8.00;100.00;99655.44;10249609;28;20072;-67
2023/04/12 18:00:58;;;;;;;8.05;7.28;;;;;;;7.97;100.00;99661.53;10260499;28;20128;-68
2023/04/12 18:05:57;;;;;;;8.45;7.35;;;;;;;8.00;100.00;99660.88;10230967;28;20045;-68
2023/04/12 18:10:54;;;;;;;8.80;7.88;;;;;;;7.99;100.00;99654.63;10247929;28;20045;-68
2023/04/12 18:15:50;;;;;;;8.00;7.20;;;;;;;7.94;100.00;99645.88;10237933;28;20073;-68
2023/04/12 18:20:47;;;;;;;8.70;7.80;;;;;;;7.91;100.00;99635.59;10244096;28;20172;-68
2023/04/12 18:25:44;;;;;;;7.60;6.90;;;;;;;7.90;100.00;99634.03;10257592;28;20045;-68
2023/04/12 18:30:40;;;;;;;9.15;7.47;;;;;;;7.91;100.00;99641.06;10239560;28;20111;-68
2023/04/12 18:35:38;;;;;;;8.77;7.35;;;;;;;7.95;100.00;99647.44;10252492;28;20075;-68
2023/04/12 18:40:36;;;;;;;8.52;7.72;;;;;;;7.97;100.00;99656.09;10257562;28;20045;-68
2023/04/12 18:45:37;;;;;;;9.18;8.27;;;;;;;7.95;100.00;99664.56;10248295;28;20069;-68
2023/04/12 18:50:38;;;;;;;8.93;8.02;;;;;;;7.99;100.00;99665.53;10254830;28;20053;-68
2023/04/12 18:55:34;;;;;;;8.98;7.75;;;;;;;7.94;100.00;99694.84;10257810;28;20127;-68
2023/04/12 19:00:31;;;;;;;13.85;7.75;;;;;;;7.69;100.00;99715.56;10258185;28;20080;-68
2023/04/12 19:05:29;;;;;;;11.38;7.72;;;;;;;7.71;100.00;99708.69;10265123;28;20065;-68
2023/04/12 19:10:26;;;;;;;7.30;6.15;;;;;;;7.57;100.00;99721.66;10265297;28;20073;-68
2023/04/12 19:15:23;;;;;;;7.90;6.13;;;;;;;7.46;100.00;99717.66;10255140;28;20079;-68
2023/04/12 19:20:19;;;;;;;6.00;5.40;;;;;;;7.40;100.00;99714.28;10265561;28;20136;-66
2023/04/12 19:25:16;;;;;;;5.88;4.57;;;;;;;7.32;100.00;99706.97;10248604;28;20255;-68
2023/04/12 19:30:16;;;;;;;6.97;5.07;;;;;;;7.34;100.00;99726.47;10260235;28;20072;-68
2023/04/12 19:35:13;;;;;;;6.53;4.75;;;;;;;7.34;100.00;99737.34;10268320;28;20037;-68
2023/04/12 19:40:13;;;;;;;5.85;5.25;;;;;;;7.36;100.00;99749.50;10268805;28;20461;-68
2023/04/12 19:45:11;;;;;;;6.93;6.25;;;;;;;7.40;100.00;99746.13;10252886;28;20520;-68
2023/04/12 19:50:09;;;;;;;6.57;5.97;;;;;;;7.04;100.00;99758.13;10265570;28;20080;-68
2023/04/12 19:55:05;;;;;;;9.88;6.53;;;;;;;6.70;100.00;99759.63;10260636;28;20103;-69
2023/04/12 20:00:10;;;;;;;7.22;5.05;;;;;;;6.43;100.00;99758.75;10260133;28;20099;-69
2023/04/12 20:05:08;;;;;;;6.22;4.10;;;;;;;6.20;100.00;99749.06;10250084;28;20056;-69
2023/04/12 20:10:07;;;;;;;5.40;4.50;;;;;;;6.09;100.00;99743.09;10251902;28;20135;-69
2023/04/12 20:15:08;;;;;;;4.50;4.10;;;;;;;6.01;100.00;99736.50;10257763;28;20081;-68
2023/04/12 20:20:07;;;;;;;4.72;4.32;;;;;;;6.02;100.00;99729.97;10240806;28;20057;-68
2023/04/12 20:25:19;;;;;;;7.88;4.28;;;;;;;5.95;100.00;99721.47;10256680;28;20053;-76
2023/04/12 20:30:41;;;;;;;5.13;4.60;;;;;;;5.86;100.00;99723.28;10245547;28;20069;-74
2023/04/12 20:35:53;;;;;;;5.80;4.75;;;;;;;5.70;100.00;99720.97;10246980;28;20041;-75
2023/04/12 20:40:56;;;;;;;6.00;4.80;;;;;;;5.64;100.00;99722.22;10245535;28;20057;-74
2023/04/12 20:46:25;;;;;;;5.30;4.25;;;;;;;5.61;100.00;99717.38;10249168;28;20053;-74
2023/04/12 20:51:48;;;;;;;7.43;4.20;;;;;;;5.67;100.00;99720.78;10254764;28;20183;-74
2023/04/12 20:57:03;;;;;;;;;;;;;;;5.67;100.00;99710.75;10262675;28;20091;-73
2023/04/12 21:02:30;;;;;;;5.55;3.88;;;;;;;5.61;100.00;99711.16;10252973;28;20310;-72
2023/04/12 21:07:27;;;;;;;6.43;4.80;;;;;;;5.48;100.00;99712.84;10239452;28;20095;-73
2023/04/12 21:12:26;;;;;;;6.05;4.43;;;;;;;5.41;100.00;99717.91;10237767;28;20056;-73
2023/04/12 21:17:51;;;;;;;5.22;4.53;;;;;;;5.31;100.00;99718.13;10244547;28;20049;-76
2023/04/12 21:22:49;;;;;;;5.75;4.50;;;;;;;5.27;100.00;99729.59;10239277;28;20402;-74
2023/04/12 21:27:46;;;;;;;9.73;4.68;;;;;;;5.26;100.00;99744.22;10254358;28;20059;-76
2023/04/12 21:33:05;;;;;;;8.70;4.47;;;;;;;5.28;100.00;99763.72;10254680;28;20044;-75
2023/04/12 21:38:03;;;;;;;6.07;4.60;;;;;;;5.23;100.00;99758.41;10254204;28;20065;-75
2023/04/12 21:43:00;;;;;;;6.32;4.07;;;;;;;5.16;100.00;99760.75;10239445;28;20049;-75
2023/04/12 21:47:58;;;;;;;7.22;4.15;;;;;;;5.13;100.00;99798.47;10252928;28;20128;-77
2023/04/12 21:53:10;;;;;;;6.40;4.55;;;;;;;5.14;100.00;99811.72;10268403;28;20045;-77
2023/04/12 22:04:30;;;;;;;7.97;4.73;;;;;;;5.08;100.00;99815.63;10116195;28;20055;-75
2023/04/12 22:09:52;;;;;;;;;;;;;;;5.08;100.00;99807.50;10155635;28;20458;-77
2023/04/12 22:14:50;;;;;;;10.65;5.00;;;;;;;5.02;100.00;99803.31;10156011;28;19932;-76
2023/04/12 22:19:48;;;;;;;8.60;4.97;;;;;;;5.09;100.00;99802.91;10115197;28;20122;-68
2023/04/12 22:24:44;;;;;;;7.15;4.72;;;;;;;5.11;100.00;99804.22;10134977;28;20048;-69
2023/04/12 22:29:41;;;;;;;10.85;5.38;;;;;;;5.17;100.00;99805.69;10141213;28;20057;-69
2023/04/12 22:34:38;;;;;;;10.27;5.22;;;;;;;5.22;100.00;99808.31;10193223;28;20056;-69
2023/04/12 22:39:35;;;;;;;9.55;4.95;;;;;;;5.30;100.00;99803.28;10231535;28;20415;-69
2023/04/12 22:44:36;;;;;;;9.25;4.93;;;;;;;5.25;100.00;99807.69;10234330;28;20049;-71
2023/04/12 22:49:43;;;;;;;8.52;5.18;;;;;;;5.34;100.00;99798.81;10236735;28;20468;-72
2023/04/12 22:54:40;;;;;;;9.75;5.47;;;;;;;5.44;100.00;99795.91;10229622;28;20045;-70
2023/04/12 22:59:36;;;;;;;6.78;4.50;;;;;;;5.49;100.00;99795.78;10223134;28;20049;-70
2023/04/12 23:04:33;;;;;;;8.00;5.38;;;;;;;5.48;100.00;99788.75;10224248;28;20045;-70